createdAt,value
2019-04-06T00:01:13.683Z,7.80
2019-04-06T00:03:42.115Z,7.79
2019-04-06T00:06:10.510Z,7.80
2019-04-06T00:08:38.986Z,7.80
2019-04-06T00:11:07.491Z,7.81
2019-04-06T00:13:35.882Z,7.82
2019-04-06T00:16:04.363Z,7.84
2019-04-06T00:18:32.838Z,7.84
2019-04-06T00:21:01.262Z,7.86
2019-04-06T00:23:29.666Z,7.88
2019-04-06T00:25:58.084Z,7.90
2019-04-06T00:28:26.501Z,7.92
2019-04-06T00:30:56.554Z,7.94
2019-04-06T00:33:26.744Z,7.95
2019-04-06T00:35:55.138Z,7.95
2019-04-06T00:38:23.620Z,7.95
2019-04-06T00:40:52.064Z,7.94
2019-04-06T00:43:20.431Z,7.96
2019-04-06T00:45:48.851Z,7.97
2019-04-06T00:48:17.401Z,7.97
2019-04-06T00:50:45.816Z,7.97
2019-04-06T00:53:14.295Z,7.97
2019-04-06T00:55:42.692Z,7.98
2019-04-06T00:58:11.145Z,7.97
2019-04-06T01:00:39.606Z,7.98
2019-04-06T01:03:08.010Z,7.97
2019-04-06T01:05:36.456Z,7.98
2019-04-06T01:08:05.029Z,7.97
2019-04-06T01:10:33.437Z,7.97
2019-04-06T01:13:01.848Z,7.96
2019-04-06T01:15:30.271Z,7.96
2019-04-06T01:17:58.690Z,7.97
2019-04-06T01:20:27.104Z,7.97
2019-04-06T01:22:55.497Z,7.97
2019-04-06T01:25:23.914Z,7.98
2019-04-06T01:27:52.318Z,7.97
2019-04-06T01:30:22.076Z,7.96
2019-04-06T01:32:50.519Z,7.96
2019-04-06T01:35:18.934Z,7.96
2019-04-06T01:37:47.345Z,7.97
2019-04-06T01:40:15.871Z,7.98
2019-04-06T01:42:44.292Z,7.96
2019-04-06T01:45:12.948Z,7.97
2019-04-06T01:47:41.408Z,7.96
2019-04-06T01:50:09.836Z,7.96
2019-04-06T01:52:38.323Z,7.97
2019-04-06T01:55:06.844Z,7.97
2019-04-06T01:57:35.427Z,7.96
2019-04-06T02:00:06.190Z,7.96
2019-04-06T02:02:36.314Z,7.96
2019-04-06T02:05:07.255Z,7.96
2019-04-06T02:07:35.682Z,7.95
2019-04-06T02:10:06.113Z,7.95
2019-04-06T02:12:34.515Z,7.95
2019-04-06T02:15:03.409Z,7.94
2019-04-06T02:17:31.802Z,7.95
2019-04-06T02:20:00.216Z,7.95
2019-04-06T02:22:28.614Z,7.95
2019-04-06T02:24:57.012Z,7.94
2019-04-06T02:27:25.435Z,7.94
2019-04-06T02:30:10.841Z,7.95
2019-04-06T02:32:43.499Z,7.94
2019-04-06T02:35:25.227Z,7.97
2019-04-06T02:37:55.260Z,7.96
2019-04-06T02:40:25.323Z,7.97
2019-04-06T02:43:04.092Z,7.96
2019-04-06T02:45:32.483Z,7.94
2019-04-06T02:48:00.924Z,7.94
2019-04-06T02:50:29.463Z,7.95
2019-04-06T02:52:57.899Z,7.96
2019-04-06T02:55:26.314Z,7.97
2019-04-06T02:57:54.742Z,7.97
2019-04-06T03:00:23.254Z,7.98
2019-04-06T03:02:51.778Z,7.96
2019-04-06T03:05:20.259Z,7.95
2019-04-06T03:07:48.738Z,7.94
2019-04-06T03:10:17.305Z,7.95
2019-04-06T03:12:45.726Z,7.95
2019-04-06T03:15:14.356Z,7.96
2019-04-06T03:17:42.831Z,7.96
2019-04-06T03:20:11.462Z,7.97
2019-04-06T03:22:40.044Z,7.94
2019-04-06T03:25:08.601Z,7.94
2019-04-06T03:27:37.088Z,7.94
2019-04-06T03:30:07.453Z,7.94
2019-04-06T03:32:35.916Z,7.94
2019-04-06T03:35:05.766Z,7.95
2019-04-06T03:37:34.154Z,7.93
2019-04-06T03:40:02.539Z,7.94
2019-04-06T03:42:30.958Z,7.95
2019-04-06T03:44:59.423Z,7.96
2019-04-06T03:47:27.851Z,7.96
2019-04-06T03:49:56.256Z,7.95
2019-04-06T03:52:24.868Z,7.92
2019-04-06T03:54:53.246Z,7.89
2019-04-06T03:57:21.666Z,7.90
2019-04-06T03:59:50.067Z,7.93
2019-04-06T04:02:18.803Z,7.93
2019-04-06T04:04:47.328Z,7.93
2019-04-06T04:07:15.769Z,7.93
2019-04-06T04:09:45.018Z,7.94
2019-04-06T04:12:13.429Z,7.94
2019-04-06T04:14:41.922Z,7.94
2019-04-06T04:17:10.455Z,7.93
2019-04-06T04:19:38.822Z,7.95
2019-04-06T04:22:07.262Z,7.94
2019-04-06T04:24:35.754Z,7.94
2019-04-06T04:27:04.343Z,7.94
2019-04-06T04:29:32.763Z,7.93
2019-04-06T04:32:01.213Z,7.96
2019-04-06T04:34:29.631Z,7.95
2019-04-06T04:36:58.115Z,7.95
2019-04-06T04:39:26.540Z,7.93
2019-04-06T04:41:54.962Z,7.92
2019-04-06T04:44:23.363Z,7.91
2019-04-06T04:46:51.804Z,7.92
2019-04-06T04:49:20.405Z,7.92
2019-04-06T04:51:48.747Z,7.92
2019-04-06T04:54:17.194Z,7.92
2019-04-06T04:56:45.585Z,7.91
2019-04-06T04:59:14.004Z,7.92
2019-04-06T05:01:42.501Z,7.91
2019-04-06T05:04:10.912Z,7.91
2019-04-06T05:06:39.358Z,7.91
2019-04-06T05:09:08.118Z,7.90
2019-04-06T05:11:36.498Z,7.90
2019-04-06T05:14:41.084Z,7.89
2019-04-06T05:17:09.516Z,7.91
2019-04-06T05:19:37.885Z,7.92
2019-04-06T05:22:06.300Z,7.93
2019-04-06T05:24:34.718Z,7.94
2019-04-06T05:27:03.142Z,7.94
2019-04-06T05:29:33.102Z,6.28
2019-04-06T05:32:01.667Z,7.96
2019-04-06T05:34:30.079Z,7.98
2019-04-06T05:36:58.480Z,8.00
2019-04-06T05:39:26.875Z,8.01
2019-04-06T05:41:55.314Z,8.02
2019-04-06T05:44:23.719Z,8.02
2019-04-06T05:46:52.126Z,8.04
2019-04-06T05:49:20.560Z,8.05
2019-04-06T05:51:49.092Z,8.07
2019-04-06T05:54:17.501Z,8.09
2019-04-06T05:56:46.141Z,8.10
2019-04-06T05:59:14.606Z,8.13
2019-04-06T06:01:43.029Z,8.14
2019-04-06T06:04:11.601Z,8.18
2019-04-06T06:06:40.154Z,8.21
2019-04-06T06:09:08.727Z,8.22
2019-04-06T06:11:37.278Z,8.23
2019-04-06T06:14:06.639Z,8.24
2019-04-06T06:16:35.036Z,8.25
2019-04-06T06:19:03.502Z,8.28
2019-04-06T06:21:32.055Z,8.30
2019-04-06T06:24:00.466Z,8.33
2019-04-06T06:26:29.031Z,8.36
2019-04-06T06:28:57.434Z,8.38
2019-04-06T06:31:25.864Z,8.40
2019-04-06T06:33:54.367Z,8.43
2019-04-06T06:36:22.767Z,8.47
2019-04-06T06:38:51.176Z,8.50
2019-04-06T06:41:19.829Z,8.52
2019-04-06T06:43:48.172Z,8.56
2019-04-06T06:46:16.664Z,8.59
2019-04-06T06:48:45.089Z,8.62
2019-04-06T06:51:13.631Z,8.65
2019-04-06T06:53:42.175Z,8.70
2019-04-06T06:56:14.503Z,8.74
2019-04-06T06:58:42.873Z,8.77
2019-04-06T07:01:11.297Z,8.80
2019-04-06T07:03:39.922Z,8.84
2019-04-06T07:06:08.458Z,8.86
2019-04-06T07:08:37.174Z,8.90
2019-04-06T07:11:08.066Z,8.96
2019-04-06T07:13:37.190Z,9.01
2019-04-06T07:16:07.460Z,9.07
2019-04-06T07:18:35.879Z,9.12
2019-04-06T07:21:04.712Z,9.18
2019-04-06T07:23:33.515Z,9.22
2019-04-06T07:26:01.954Z,9.24
2019-04-06T07:28:37.465Z,9.28
2019-04-06T07:31:00.549Z,9.34
2019-04-06T07:33:28.965Z,9.37
2019-04-06T07:35:57.390Z,9.42
2019-04-06T07:38:26.078Z,9.47
2019-04-06T07:40:54.462Z,9.49
2019-04-06T07:43:22.887Z,9.51
2019-04-06T07:45:51.274Z,9.55
2019-04-06T07:48:19.812Z,9.59
2019-04-06T07:50:48.450Z,9.65
2019-04-06T07:53:16.852Z,9.68
2019-04-06T07:55:45.287Z,9.72
2019-04-06T07:58:13.776Z,9.76
2019-04-06T08:00:42.201Z,9.82
2019-04-06T08:03:10.607Z,9.86
2019-04-06T08:05:39.115Z,9.92
2019-04-06T08:08:07.508Z,9.92
2019-04-06T08:10:35.958Z,9.96
2019-04-06T08:13:04.410Z,10.00
2019-04-06T08:15:33.014Z,10.00
2019-04-06T08:18:01.412Z,10.02
2019-04-06T08:20:29.800Z,10.00
2019-04-06T08:22:58.226Z,10.01
2019-04-06T08:25:26.912Z,10.04
2019-04-06T08:27:55.229Z,10.07
2019-04-06T08:30:23.679Z,10.15
2019-04-06T08:32:52.170Z,10.22
2019-04-06T08:35:25.789Z,10.27
2019-04-06T08:37:50.773Z,10.28
2019-04-06T08:40:19.321Z,10.27
2019-04-06T08:42:47.722Z,10.31
2019-04-06T08:45:16.442Z,10.34
2019-04-06T08:47:44.874Z,10.39
2019-04-06T08:50:13.622Z,10.44
2019-04-06T08:52:42.106Z,10.51
2019-04-06T08:55:10.720Z,10.56
2019-04-06T08:57:39.151Z,10.56
2019-04-06T09:00:08.295Z,10.58
2019-04-06T09:02:36.772Z,10.61
2019-04-06T09:05:06.891Z,10.61
2019-04-06T09:07:35.396Z,10.64
2019-04-06T09:10:06.318Z,10.68
2019-04-06T09:12:34.758Z,10.74
2019-04-06T09:15:04.620Z,10.79
2019-04-06T09:17:33.023Z,10.82
2019-04-06T09:20:01.637Z,10.82
2019-04-06T09:22:29.997Z,10.88
2019-04-06T09:24:58.435Z,10.93
2019-04-06T09:27:26.875Z,11.00
2019-04-06T09:29:55.488Z,11.07
2019-04-06T09:32:23.875Z,11.06
2019-04-06T09:34:52.367Z,10.99
2019-04-06T09:37:21.013Z,10.97
2019-04-06T09:39:49.350Z,11.02
2019-04-06T09:42:17.769Z,11.11
2019-04-06T09:44:47.823Z,11.13
2019-04-06T09:47:23.953Z,11.13
2019-04-06T09:49:53.956Z,11.21
2019-04-06T09:52:40.239Z,11.26
2019-04-06T09:55:13.167Z,11.28
2019-04-06T09:57:43.499Z,11.37
2019-04-06T10:00:14.097Z,11.47
2019-04-06T10:02:47.041Z,11.55
2019-04-06T10:05:17.105Z,11.61
2019-04-06T10:08:03.621Z,11.66
2019-04-06T10:10:36.620Z,11.68
2019-04-06T10:13:18.823Z,11.67
2019-04-06T10:15:54.998Z,11.68
2019-04-06T10:18:31.559Z,11.65
2019-04-06T10:21:17.763Z,11.61
2019-04-06T10:24:05.986Z,11.61
2019-04-06T10:26:47.646Z,11.61
2019-04-06T10:29:18.156Z,11.62
2019-04-06T10:32:04.928Z,11.65
2019-04-06T10:34:38.158Z,11.80
2019-04-06T10:37:17.418Z,11.98
2019-04-06T10:39:47.464Z,12.07
2019-04-06T10:42:32.743Z,12.13
2019-04-06T10:45:05.914Z,12.13
2019-04-06T10:47:36.002Z,12.24
2019-04-06T10:50:25.027Z,12.35
2019-04-06T10:53:01.471Z,12.50
2019-04-06T10:55:40.359Z,12.57
2019-04-06T10:58:12.956Z,12.63
2019-04-06T11:00:46.052Z,12.70
2019-04-06T11:03:19.009Z,12.75
2019-04-06T11:05:58.090Z,12.85
2019-04-06T11:08:44.709Z,12.92
2019-04-06T11:11:19.358Z,12.94
2019-04-06T11:13:59.035Z,13.02
2019-04-06T11:16:47.671Z,13.05
2019-04-06T11:19:32.127Z,13.08
2019-04-06T11:22:02.484Z,13.11
2019-04-06T11:24:48.625Z,13.18
2019-04-06T11:27:34.837Z,13.17
2019-04-06T11:30:17.396Z,13.27
2019-04-06T11:32:53.354Z,13.31
2019-04-06T11:35:38.761Z,13.43
2019-04-06T11:38:20.786Z,13.54
2019-04-06T11:40:56.643Z,13.70
2019-04-06T11:43:26.712Z,13.80
2019-04-06T11:46:09.029Z,13.87
2019-04-06T11:48:39.103Z,13.88
2019-04-06T11:51:09.148Z,13.84
2019-04-06T11:53:51.197Z,13.89
2019-04-06T11:56:27.492Z,13.92
2019-04-06T11:59:03.766Z,13.94
2019-04-06T12:01:36.963Z,13.93
2019-04-06T12:04:07.047Z,14.00
2019-04-06T12:06:43.137Z,14.10
2019-04-06T12:09:21.955Z,14.25
2019-04-06T12:11:52.039Z,14.43
2019-04-06T12:14:24.685Z,14.57
2019-04-06T12:17:04.131Z,14.71
2019-04-06T12:19:34.289Z,14.85
2019-04-06T12:22:20.729Z,15.00
2019-04-06T12:25:08.945Z,15.02
2019-04-06T12:27:55.214Z,14.99
2019-04-06T12:30:37.437Z,15.07
2019-04-06T12:32:59.880Z,15.02
2019-04-06T12:35:45.849Z,14.91
2019-04-06T12:38:33.994Z,14.97
2019-04-06T12:41:16.150Z,15.08
2019-04-06T12:43:55.238Z,15.12
2019-04-06T12:46:41.277Z,15.10
2019-04-06T12:49:11.356Z,15.05
2019-04-06T12:51:54.040Z,14.99
2019-04-06T12:54:40.332Z,15.05
2019-04-06T12:57:13.562Z,15.03
2019-04-06T12:59:43.608Z,14.91
2019-04-06T13:02:16.420Z,14.86
2019-04-06T13:04:48.968Z,14.87
2019-04-06T13:07:27.942Z,14.87
2019-04-06T13:09:58.091Z,14.89
2019-04-06T13:12:28.561Z,14.90
2019-04-06T13:15:05.121Z,14.92
2019-04-06T13:17:46.960Z,14.93
2019-04-06T13:20:17.360Z,14.95
2019-04-06T13:22:59.458Z,14.92
2019-04-06T13:25:29.603Z,14.97
2019-04-06T13:28:11.857Z,15.06
2019-04-06T13:31:02.969Z,15.13
2019-04-06T13:33:29.069Z,15.19
2019-04-06T13:35:59.093Z,15.30
2019-04-06T13:38:38.715Z,15.33
2019-04-06T13:41:25.264Z,15.27
2019-04-06T13:43:55.676Z,15.21
2019-04-06T13:46:42.202Z,15.30
2019-04-06T13:49:17.971Z,15.37
2019-04-06T13:51:50.750Z,15.37
2019-04-06T13:54:37.537Z,15.39
2019-04-06T13:57:07.833Z,16.00
2019-04-06T13:59:49.999Z,16.34
2019-04-06T14:02:20.504Z,16.50
2019-04-06T14:05:05.598Z,16.29
2019-04-06T14:07:44.489Z,16.08
2019-04-06T14:10:26.833Z,15.99
2019-04-06T14:12:56.906Z,15.88
2019-04-06T14:15:43.424Z,15.88
2019-04-06T14:18:13.510Z,15.80
2019-04-06T14:20:49.291Z,15.71
2019-04-06T14:23:19.368Z,15.67
2019-04-06T14:26:04.851Z,15.62
2019-04-06T14:28:51.280Z,15.62
2019-04-06T14:31:30.895Z,15.61
2019-04-06T14:34:09.913Z,15.66
2019-04-06T14:36:46.015Z,15.70
2019-04-06T14:39:28.161Z,15.71
2019-04-06T14:42:14.918Z,15.75
2019-04-06T14:44:50.741Z,15.83
2019-04-06T14:47:20.774Z,15.84
2019-04-06T14:49:51.041Z,15.78
2019-04-06T14:52:24.090Z,15.76
2019-04-06T14:55:06.153Z,15.72
2019-04-06T14:57:51.201Z,15.71
2019-04-06T15:00:21.384Z,15.69
2019-04-06T15:02:57.548Z,15.64
2019-04-06T15:05:44.109Z,15.62
2019-04-06T15:08:28.923Z,15.62
2019-04-06T15:11:01.982Z,15.62
2019-04-06T15:13:48.113Z,15.55
2019-04-06T15:16:34.564Z,15.50
2019-04-06T15:19:10.484Z,15.57
2019-04-06T15:21:43.790Z,15.74
2019-04-06T15:24:16.359Z,15.90
2019-04-06T15:26:58.799Z,16.09
2019-04-06T15:29:28.968Z,16.27
2019-04-06T15:32:15.545Z,16.39
2019-04-06T15:35:03.275Z,16.45
2019-04-06T15:37:48.987Z,16.51
2019-04-06T15:40:34.319Z,16.52
2019-04-06T15:43:18.789Z,16.41
2019-04-06T15:45:48.345Z,16.33
2019-04-06T15:48:38.016Z,16.27
2019-04-06T15:51:23.434Z,16.21
2019-04-06T15:54:01.324Z,16.17
2019-04-06T15:56:46.406Z,16.17
2019-04-06T15:59:17.236Z,16.22
2019-04-06T16:01:58.536Z,16.25
2019-04-06T16:04:29.119Z,16.20
2019-04-06T16:06:59.270Z,16.25
2019-04-06T16:09:38.359Z,16.28
2019-04-06T16:12:08.427Z,16.27
2019-04-06T16:14:41.531Z,16.26
2019-04-06T16:17:14.390Z,16.27
2019-04-06T16:19:45.077Z,16.28
2019-04-06T16:22:18.637Z,16.22
2019-04-06T16:25:05.474Z,16.19
2019-04-06T16:27:35.602Z,16.17
2019-04-06T16:30:08.227Z,16.12
2019-04-06T16:32:38.452Z,16.04
2019-04-06T16:35:14.981Z,15.99
2019-04-06T16:37:48.006Z,15.95
2019-04-06T16:40:23.835Z,15.89
2019-04-06T16:42:59.825Z,15.87
2019-04-06T16:45:48.016Z,15.87
2019-04-06T16:48:36.848Z,15.83
2019-04-06T16:51:25.017Z,15.83
2019-04-06T16:53:55.521Z,15.80
2019-04-06T16:56:28.208Z,15.77
2019-04-06T16:59:10.245Z,15.77
2019-04-06T17:01:42.814Z,15.78
2019-04-06T17:04:31.488Z,15.76
2019-04-06T17:07:16.686Z,15.77
2019-04-06T17:09:49.942Z,15.76
2019-04-06T17:12:28.803Z,15.73
2019-04-06T17:15:15.280Z,15.72
2019-04-06T17:17:51.277Z,15.67
2019-04-06T17:20:33.562Z,15.61
2019-04-06T17:23:15.664Z,15.56
2019-04-06T17:25:58.062Z,15.53
2019-04-06T17:28:44.485Z,15.48
2019-04-06T17:31:14.985Z,15.41
2019-04-06T17:34:03.748Z,15.35
2019-04-06T17:36:36.851Z,15.29
2019-04-06T17:39:14.325Z,15.21
2019-04-06T17:42:00.534Z,15.12
2019-04-06T17:44:48.833Z,15.06
2019-04-06T17:47:37.243Z,15.01
2019-04-06T17:50:12.155Z,14.93
2019-04-06T17:52:42.765Z,14.82
2019-04-06T17:55:13.440Z,14.74
2019-04-06T17:57:43.663Z,14.66
2019-04-06T18:00:30.417Z,14.58
2019-04-06T18:03:06.610Z,14.50
2019-04-06T18:05:48.785Z,14.31
2019-04-06T18:08:21.619Z,14.23
2019-04-06T18:10:54.748Z,14.13
2019-04-06T18:13:40.201Z,14.06
2019-04-06T18:16:08.999Z,13.96
2019-04-06T18:18:37.506Z,13.81
2019-04-06T18:21:05.984Z,13.70
2019-04-06T18:23:34.605Z,13.65
2019-04-06T18:26:03.617Z,13.72
2019-04-06T18:28:32.097Z,13.69
2019-04-06T18:31:04.836Z,13.63
2019-04-06T18:33:33.258Z,13.63
2019-04-06T18:36:01.703Z,13.66
2019-04-06T18:38:34.452Z,13.66
2019-04-06T18:41:02.864Z,13.59
2019-04-06T18:43:31.554Z,13.50
2019-04-06T18:45:59.901Z,13.16
2019-04-06T18:48:28.569Z,13.08
2019-04-06T18:50:57.130Z,13.11
2019-04-06T18:53:25.561Z,13.11
2019-04-06T18:55:54.016Z,12.92
2019-04-06T18:58:22.422Z,13.00
2019-04-06T19:00:51.002Z,12.69
2019-04-06T19:03:19.467Z,12.49
2019-04-06T19:05:50.050Z,12.48
2019-04-06T19:08:18.580Z,12.46
2019-04-06T19:10:47.560Z,12.42
2019-04-06T19:13:16.059Z,12.41
2019-04-06T19:15:44.486Z,12.28
2019-04-06T19:18:13.451Z,12.28
2019-04-06T19:20:41.939Z,12.27
2019-04-06T19:23:10.376Z,12.30
2019-04-06T19:25:38.768Z,12.24
2019-04-06T19:28:07.657Z,12.29
2019-04-06T19:30:36.278Z,12.20
2019-04-06T19:33:04.820Z,12.09
2019-04-06T19:35:33.302Z,11.90
2019-04-06T19:38:02.019Z,11.75
2019-04-06T19:40:30.692Z,11.64
2019-04-06T19:42:59.181Z,11.52
2019-04-06T19:45:27.680Z,11.45
2019-04-06T19:47:56.693Z,11.37
2019-04-06T19:50:25.201Z,11.45
2019-04-06T19:52:53.610Z,11.57
2019-04-06T19:55:22.885Z,11.67
2019-04-06T19:57:51.688Z,11.56
2019-04-06T20:00:20.575Z,11.49
2019-04-06T20:02:49.619Z,11.38
2019-04-06T20:05:18.509Z,11.21
2019-04-06T20:07:46.995Z,11.05
2019-04-06T20:10:15.576Z,11.02
2019-04-06T20:12:44.016Z,11.03
2019-04-06T20:15:13.254Z,11.07
2019-04-06T20:17:41.777Z,11.11
2019-04-06T20:20:10.263Z,11.24
2019-04-06T20:22:38.709Z,11.30
2019-04-06T20:25:08.218Z,11.29
2019-04-06T20:27:36.773Z,11.12
2019-04-06T20:30:07.811Z,11.05
2019-04-06T20:32:36.353Z,11.08
2019-04-06T20:35:07.632Z,11.17
2019-04-06T20:37:36.000Z,11.25
2019-04-06T20:40:07.738Z,11.33
2019-04-06T20:42:36.132Z,11.39
2019-04-06T20:45:06.893Z,11.37
2019-04-06T20:47:35.693Z,11.39
2019-04-06T20:50:07.114Z,11.38
2019-04-06T20:52:36.078Z,11.17
2019-04-06T20:55:06.886Z,10.99
2019-04-06T20:57:35.288Z,10.96
2019-04-06T21:00:06.029Z,10.89
2019-04-06T21:02:34.480Z,9.37
2019-04-06T21:05:03.110Z,10.65
2019-04-06T21:07:31.466Z,10.48
2019-04-06T21:10:00.540Z,10.46
2019-04-06T21:12:29.176Z,10.40
2019-04-06T21:14:57.678Z,10.37
2019-04-06T21:17:26.605Z,10.40
2019-04-06T21:19:55.176Z,7.32
2019-04-06T21:22:23.919Z,10.33
2019-04-06T21:24:52.745Z,10.22
2019-04-06T21:27:21.748Z,10.23
2019-04-06T21:29:50.733Z,10.24
2019-04-06T21:32:19.167Z,10.21
2019-04-06T21:34:47.593Z,10.15
2019-04-06T21:37:16.015Z,10.23
2019-04-06T21:39:44.937Z,10.24
2019-04-06T21:42:14.448Z,10.26
2019-04-06T21:44:43.460Z,10.30
2019-04-06T21:47:12.159Z,10.31
2019-04-06T21:49:40.573Z,10.30
2019-04-06T21:52:09.010Z,10.29
2019-04-06T21:54:37.434Z,10.31
2019-04-06T21:57:06.197Z,10.29
2019-04-06T21:59:34.741Z,10.32
2019-04-06T22:02:03.385Z,10.29
2019-04-06T22:04:32.644Z,10.17
2019-04-06T22:07:01.271Z,10.10
2019-04-06T22:09:30.467Z,10.05
2019-04-06T22:11:58.960Z,10.09
2019-04-06T22:14:27.377Z,10.14
2019-04-06T22:16:56.040Z,10.17
2019-04-06T22:19:24.802Z,10.16
2019-04-06T22:21:54.340Z,10.17
2019-04-06T22:24:22.978Z,10.08
2019-04-06T22:26:51.933Z,10.07
2019-04-06T22:29:20.717Z,10.06
2019-04-06T22:31:49.260Z,10.06
2019-04-06T22:34:17.659Z,9.96
2019-04-06T22:36:46.702Z,9.93
2019-04-06T22:39:15.441Z,9.95
2019-04-06T22:41:43.880Z,9.84
2019-04-06T22:44:12.259Z,9.86
2019-04-06T22:46:40.821Z,9.85
2019-04-06T22:49:09.229Z,9.93
2019-04-06T22:51:37.970Z,10.07
2019-04-06T22:54:06.809Z,10.07
2019-04-06T22:56:35.299Z,10.07
2019-04-06T22:59:03.719Z,10.05
2019-04-06T23:01:34.569Z,10.05
2019-04-06T23:04:07.699Z,9.87
2019-04-06T23:06:47.007Z,9.89
2019-04-06T23:09:15.425Z,9.88
2019-04-06T23:11:43.836Z,9.98
2019-04-06T23:14:12.516Z,10.09
2019-04-06T23:16:44.045Z,10.13
2019-04-06T23:19:12.455Z,10.17
2019-04-06T23:21:41.370Z,10.11
2019-04-06T23:24:10.089Z,10.18
2019-04-06T23:26:39.790Z,10.16
2019-04-06T23:29:08.806Z,10.22
2019-04-06T23:31:37.401Z,10.28
2019-04-06T23:34:05.870Z,10.33
2019-04-06T23:36:34.268Z,10.38
2019-04-06T23:39:03.439Z,10.41
2019-04-06T23:41:32.302Z,10.43
2019-04-06T23:44:00.906Z,10.46
2019-04-06T23:46:30.159Z,10.44
2019-04-06T23:48:59.207Z,10.44
2019-04-06T23:51:29.290Z,10.44
2019-04-06T23:53:58.418Z,10.49
2019-04-06T23:56:26.918Z,10.52
2019-04-06T23:58:55.339Z,10.55
